createdAt,value
2022-11-16T00:00:05.377Z,100.00
2022-11-16T00:01:08.912Z,100.00
2022-11-16T00:02:10.824Z,100.00
2022-11-16T00:03:12.247Z,100.00
2022-11-16T00:04:13.650Z,100.00
2022-11-16T00:05:15.099Z,100.00
2022-11-16T00:06:16.943Z,100.00
2022-11-16T00:07:18.360Z,100.00
2022-11-16T00:08:19.720Z,100.00
2022-11-16T00:09:21.051Z,100.00
2022-11-16T00:10:22.400Z,100.00
2022-11-16T00:11:23.728Z,100.00
2022-11-16T00:12:25.051Z,100.00
2022-11-16T00:13:26.360Z,100.00
2022-11-16T00:14:28.950Z,100.00
2022-11-16T00:15:30.279Z,100.00
2022-11-16T00:16:32.171Z,100.00
2022-11-16T00:17:33.470Z,100.00
2022-11-16T00:18:35.095Z,100.00
2022-11-16T00:19:36.671Z,100.00
2022-11-16T00:20:38.380Z,100.00
2022-11-16T00:21:39.828Z,100.00
2022-11-16T00:22:41.157Z,100.00
2022-11-16T00:23:42.494Z,100.00
2022-11-16T00:24:43.795Z,100.00
2022-11-16T00:25:45.295Z,100.00
2022-11-16T00:26:47.052Z,100.00
2022-11-16T00:27:48.359Z,100.00
2022-11-16T00:28:50.595Z,100.00
2022-11-16T00:29:51.951Z,100.00
2022-11-16T00:31:00.647Z,100.00
2022-11-16T00:32:02.032Z,100.00
2022-11-16T00:33:04.200Z,100.00
2022-11-16T00:34:05.516Z,100.00
2022-11-16T00:35:07.198Z,100.00
2022-11-16T00:36:10.146Z,100.00
2022-11-16T00:37:11.585Z,100.00
2022-11-16T00:38:12.918Z,100.00
2022-11-16T00:39:17.686Z,100.00
2022-11-16T00:40:20.675Z,100.00
2022-11-16T00:41:22.087Z,100.00
2022-11-16T00:42:23.438Z,100.00
2022-11-16T00:43:25.259Z,100.00
2022-11-16T00:44:26.732Z,100.00
2022-11-16T00:45:28.126Z,100.00
2022-11-16T00:46:29.480Z,100.00
2022-11-16T00:47:30.802Z,100.00
2022-11-16T00:48:32.565Z,100.00
2022-11-16T00:49:34.207Z,100.00
2022-11-16T00:50:35.610Z,100.00
2022-11-16T00:51:37.206Z,100.00
2022-11-16T00:52:38.822Z,100.00
2022-11-16T00:53:40.202Z,100.00
2022-11-16T00:54:41.841Z,100.00
2022-11-16T00:55:44.197Z,100.00
2022-11-16T00:56:45.676Z,100.00
2022-11-16T00:57:47.257Z,100.00
2022-11-16T00:58:49.218Z,100.00
2022-11-16T00:59:51.243Z,100.00
2022-11-16T01:00:52.618Z,100.00
2022-11-16T01:01:54.070Z,100.00
2022-11-16T01:02:55.461Z,100.00
2022-11-16T01:03:56.763Z,100.00
2022-11-16T01:04:58.127Z,100.00
2022-11-16T01:06:00.279Z,100.00
2022-11-16T01:07:01.649Z,100.00
2022-11-16T01:08:03.328Z,100.00
2022-11-16T01:09:04.739Z,100.00
2022-11-16T01:10:10.934Z,100.00
2022-11-16T01:11:13.795Z,100.00
2022-11-16T01:12:16.843Z,100.00
2022-11-16T01:13:18.195Z,100.00
2022-11-16T01:14:19.550Z,100.00
2022-11-16T01:15:21.858Z,100.00
2022-11-16T01:16:23.871Z,100.00
2022-11-16T01:17:25.217Z,100.00
2022-11-16T01:18:26.576Z,100.00
2022-11-16T01:19:27.994Z,100.00
2022-11-16T01:20:29.468Z,100.00
2022-11-16T01:21:30.861Z,100.00
2022-11-16T01:22:34.591Z,100.00
2022-11-16T01:23:35.930Z,100.00
2022-11-16T01:24:37.308Z,100.00
2022-11-16T01:25:38.652Z,100.00
2022-11-16T01:26:40.073Z,100.00
2022-11-16T01:27:42.033Z,100.00
2022-11-16T01:28:48.876Z,100.00
2022-11-16T01:29:50.266Z,100.00
2022-11-16T01:30:51.940Z,100.00
2022-11-16T01:31:54.072Z,100.00
2022-11-16T01:32:55.405Z,100.00
2022-11-16T01:33:56.915Z,100.00
2022-11-16T01:35:01.514Z,100.00
2022-11-16T01:36:12.435Z,100.00
2022-11-16T01:37:13.777Z,100.00
2022-11-16T01:38:16.677Z,100.00
2022-11-16T01:39:18.060Z,100.00
2022-11-16T01:40:27.042Z,100.00
2022-11-16T01:41:28.796Z,100.00
2022-11-16T01:42:33.340Z,100.00
2022-11-16T01:43:56.559Z,100.00
2022-11-16T01:45:03.379Z,100.00
2022-11-16T01:46:04.831Z,100.00
2022-11-16T01:47:09.732Z,100.00
2022-11-16T01:48:13.552Z,100.00
2022-11-16T01:49:17.561Z,100.00
2022-11-16T01:50:19.574Z,100.00
2022-11-16T01:51:23.469Z,100.00
2022-11-16T01:52:28.688Z,100.00
2022-11-16T01:53:30.107Z,100.00
2022-11-16T01:54:32.805Z,100.00
2022-11-16T01:55:36.930Z,100.00
2022-11-16T01:56:50.152Z,100.00
2022-11-16T01:58:12.047Z,100.00
2022-11-16T01:59:15.023Z,100.00
2022-11-16T02:00:17.013Z,100.00
2022-11-16T02:01:28.650Z,100.00
2022-11-16T02:02:33.342Z,100.00
2022-11-16T02:03:36.776Z,100.00
2022-11-16T02:04:38.153Z,100.00
2022-11-16T02:05:49.574Z,100.00
2022-11-16T02:06:53.888Z,100.00
2022-11-16T02:08:15.136Z,100.00
2022-11-16T02:09:36.197Z,100.00
2022-11-16T02:10:45.948Z,100.00
2022-11-16T02:11:59.148Z,100.00
2022-11-16T02:13:09.412Z,100.00
2022-11-16T02:14:26.034Z,100.00
2022-11-16T02:15:34.024Z,100.00
2022-11-16T02:16:58.688Z,100.00
2022-11-16T02:18:11.327Z,100.00
2022-11-16T02:19:37.058Z,100.00
2022-11-16T02:20:38.840Z,100.00
2022-11-16T02:22:01.210Z,100.00
2022-11-16T02:23:21.696Z,100.00
2022-11-16T02:24:38.396Z,100.00
2022-11-16T02:25:42.596Z,100.00
2022-11-16T02:27:02.575Z,100.00
2022-11-16T02:28:22.604Z,100.00
2022-11-16T02:29:29.913Z,100.00
2022-11-16T02:30:31.373Z,100.00
2022-11-16T02:31:37.680Z,100.00
2022-11-16T02:32:42.132Z,100.00
2022-11-16T02:33:44.115Z,100.00
2022-11-16T02:34:57.551Z,100.00
2022-11-16T02:36:01.690Z,100.00
2022-11-16T02:37:04.737Z,100.00
2022-11-16T02:38:26.859Z,100.00
2022-11-16T02:39:31.025Z,100.00
2022-11-16T02:40:33.308Z,100.00
2022-11-16T02:41:37.970Z,100.00
2022-11-16T02:42:42.000Z,100.00
2022-11-16T02:43:52.422Z,100.00
2022-11-16T02:44:54.609Z,100.00
2022-11-16T02:46:00.208Z,100.00
2022-11-16T02:47:04.958Z,100.00
2022-11-16T02:48:09.658Z,100.00
2022-11-16T02:49:13.961Z,100.00
2022-11-16T02:50:16.756Z,100.00
2022-11-16T02:51:18.921Z,100.00
2022-11-16T02:52:22.588Z,100.00
2022-11-16T02:53:24.946Z,100.00
2022-11-16T02:54:27.962Z,100.00
2022-11-16T02:55:33.756Z,100.00
2022-11-16T02:56:42.954Z,100.00
2022-11-16T02:57:50.312Z,100.00
2022-11-16T02:58:51.695Z,100.00
2022-11-16T02:59:55.366Z,100.00
2022-11-16T03:00:56.878Z,100.00
2022-11-16T03:02:02.076Z,100.00
2022-11-16T03:03:22.889Z,100.00
2022-11-16T03:04:30.519Z,100.00
2022-11-16T03:05:35.240Z,100.00
2022-11-16T03:06:41.176Z,100.00
2022-11-16T03:07:48.035Z,100.00
2022-11-16T03:08:52.777Z,100.00
2022-11-16T03:09:55.323Z,100.00
2022-11-16T03:11:02.041Z,100.00
2022-11-16T03:12:07.176Z,100.00
2022-11-16T03:13:11.384Z,100.00
2022-11-16T03:14:16.132Z,100.00
2022-11-16T03:15:18.197Z,100.00
2022-11-16T03:16:22.066Z,100.00
2022-11-16T03:17:24.381Z,100.00
2022-11-16T03:18:28.072Z,100.00
2022-11-16T03:19:38.495Z,100.00
2022-11-16T03:20:40.827Z,100.00
2022-11-16T03:21:49.566Z,100.00
2022-11-16T03:22:53.880Z,100.00
2022-11-16T03:23:55.602Z,100.00
2022-11-16T03:24:57.244Z,100.00
2022-11-16T03:26:00.203Z,100.00
2022-11-16T03:27:09.107Z,100.00
2022-11-16T03:28:17.997Z,100.00
2022-11-16T03:29:31.554Z,100.00
2022-11-16T03:30:40.144Z,100.00
2022-11-16T03:31:48.281Z,100.00
2022-11-16T03:33:03.601Z,100.00
2022-11-16T03:34:07.680Z,100.00
2022-11-16T03:35:21.428Z,100.00
2022-11-16T03:36:26.216Z,100.00
2022-11-16T03:37:29.491Z,100.00
2022-11-16T03:38:34.866Z,100.00
2022-11-16T03:39:38.424Z,100.00
2022-11-16T03:40:41.700Z,100.00
2022-11-16T03:41:44.552Z,100.00
2022-11-16T03:42:47.136Z,100.00
2022-11-16T03:43:49.146Z,100.00
2022-11-16T03:44:50.649Z,100.00
2022-11-16T03:45:52.743Z,100.00
2022-11-16T03:46:54.324Z,100.00
2022-11-16T03:47:57.294Z,100.00
2022-11-16T03:48:59.279Z,100.00
2022-11-16T03:50:04.135Z,100.00
2022-11-16T03:51:07.992Z,100.00
2022-11-16T03:52:09.374Z,100.00
2022-11-16T03:53:11.062Z,100.00
2022-11-16T03:54:13.535Z,100.00
2022-11-16T03:55:16.257Z,100.00
2022-11-16T03:56:19.069Z,100.00
2022-11-16T03:57:21.238Z,100.00
2022-11-16T03:58:28.444Z,100.00
2022-11-16T03:59:30.654Z,100.00
2022-11-16T04:00:32.363Z,100.00
2022-11-16T04:01:44.579Z,100.00
2022-11-16T04:02:47.188Z,100.00
2022-11-16T04:03:53.485Z,100.00
2022-11-16T04:04:54.913Z,100.00
2022-11-16T04:05:57.749Z,100.00
2022-11-16T04:06:59.656Z,100.00
2022-11-16T04:08:01.420Z,100.00
2022-11-16T04:09:02.887Z,100.00
2022-11-16T04:10:04.547Z,100.00
2022-11-16T04:11:06.323Z,100.00
2022-11-16T04:12:08.609Z,100.00
2022-11-16T04:13:12.952Z,100.00
2022-11-16T04:14:17.764Z,100.00
2022-11-16T04:15:19.120Z,100.00
2022-11-16T04:16:20.564Z,100.00
2022-11-16T04:17:23.627Z,100.00
2022-11-16T04:18:24.959Z,100.00
2022-11-16T04:19:26.378Z,100.00
2022-11-16T04:20:27.802Z,100.00
2022-11-16T04:21:32.417Z,100.00
2022-11-16T04:22:40.607Z,100.00
2022-11-16T04:23:43.030Z,100.00
2022-11-16T04:24:46.519Z,100.00
2022-11-16T04:25:49.467Z,100.00
2022-11-16T04:26:57.329Z,100.00
2022-11-16T04:27:58.996Z,100.00
2022-11-16T04:29:00.484Z,100.00
2022-11-16T04:30:02.968Z,100.00
2022-11-16T04:31:06.866Z,100.00
2022-11-16T04:32:10.068Z,100.00
2022-11-16T04:33:11.608Z,100.00
2022-11-16T04:34:13.296Z,100.00
2022-11-16T04:35:20.028Z,100.00
2022-11-16T04:36:21.600Z,100.00
2022-11-16T04:37:23.136Z,100.00
2022-11-16T04:38:24.479Z,100.00
2022-11-16T04:39:25.869Z,100.00
2022-11-16T04:40:27.785Z,100.00
2022-11-16T04:41:30.438Z,100.00
2022-11-16T04:42:32.133Z,100.00
2022-11-16T04:43:33.535Z,100.00
2022-11-16T04:44:36.134Z,100.00
2022-11-16T04:45:37.709Z,100.00
2022-11-16T04:46:39.160Z,100.00
2022-11-16T04:47:40.653Z,100.00
2022-11-16T04:48:42.009Z,100.00
2022-11-16T04:49:44.142Z,100.00
2022-11-16T04:50:46.712Z,100.00
2022-11-16T04:51:48.356Z,100.00
2022-11-16T04:52:49.803Z,100.00
2022-11-16T04:53:51.310Z,100.00
2022-11-16T04:54:56.385Z,100.00
2022-11-16T04:56:00.873Z,100.00
2022-11-16T04:57:02.801Z,100.00
2022-11-16T04:58:04.468Z,100.00
2022-11-16T04:59:06.032Z,100.00
2022-11-16T05:00:07.867Z,100.00
2022-11-16T05:01:11.114Z,100.00
2022-11-16T05:02:12.564Z,100.00
2022-11-16T05:03:25.225Z,100.00
2022-11-16T05:04:26.598Z,100.00
2022-11-16T05:05:28.194Z,100.00
2022-11-16T05:06:32.982Z,100.00
2022-11-16T05:07:34.536Z,100.00
2022-11-16T05:08:41.284Z,100.00
2022-11-16T05:09:43.737Z,100.00
2022-11-16T05:10:50.046Z,100.00
2022-11-16T05:11:51.676Z,100.00
2022-11-16T05:12:53.162Z,100.00
2022-11-16T05:13:54.595Z,100.00
2022-11-16T05:14:56.336Z,100.00
2022-11-16T05:15:59.981Z,100.00
2022-11-16T05:17:01.571Z,100.00
2022-11-16T05:18:03.801Z,100.00
2022-11-16T05:19:05.285Z,100.00
2022-11-16T05:20:10.843Z,100.00
2022-11-16T05:21:19.935Z,100.00
2022-11-16T05:22:21.756Z,100.00
2022-11-16T05:23:24.576Z,100.00
2022-11-16T05:24:26.047Z,100.00
2022-11-16T05:25:28.563Z,100.00
2022-11-16T05:26:33.423Z,100.00
2022-11-16T05:27:35.998Z,100.00
2022-11-16T05:28:38.093Z,100.00
2022-11-16T05:29:40.575Z,100.00
2022-11-16T05:30:45.244Z,100.00
2022-11-16T05:31:48.479Z,100.00
2022-11-16T05:32:49.875Z,100.00
2022-11-16T05:33:53.770Z,100.00
2022-11-16T05:34:55.236Z,100.00
2022-11-16T05:35:57.841Z,100.00
2022-11-16T05:36:59.456Z,100.00
2022-11-16T05:38:01.540Z,100.00
2022-11-16T05:39:04.298Z,100.00
2022-11-16T05:40:08.510Z,100.00
2022-11-16T05:41:23.243Z,100.00
2022-11-16T05:42:25.102Z,100.00
2022-11-16T05:43:28.795Z,100.00
2022-11-16T05:44:50.424Z,100.00
2022-11-16T05:45:51.865Z,100.00
2022-11-16T05:46:54.058Z,100.00
2022-11-16T05:47:55.667Z,100.00
2022-11-16T05:48:57.074Z,100.00
2022-11-16T05:49:59.351Z,100.00
2022-11-16T05:51:04.777Z,100.00
2022-11-16T05:52:08.636Z,100.00
2022-11-16T05:53:10.275Z,100.00
2022-11-16T05:54:13.789Z,100.00
2022-11-16T05:55:15.425Z,100.00
2022-11-16T05:56:18.549Z,100.00
2022-11-16T05:57:20.301Z,100.00
2022-11-16T05:58:21.698Z,100.00
2022-11-16T05:59:25.040Z,100.00
2022-11-16T06:00:29.497Z,100.00
2022-11-16T06:01:30.924Z,100.00
2022-11-16T06:02:33.203Z,100.00
2022-11-16T06:03:35.217Z,100.00
2022-11-16T06:04:36.859Z,100.00
2022-11-16T06:05:40.719Z,100.00
2022-11-16T06:06:43.884Z,100.00
2022-11-16T06:07:46.448Z,100.00
2022-11-16T06:08:47.863Z,100.00
2022-11-16T06:09:54.365Z,100.00
2022-11-16T06:10:58.493Z,100.00
2022-11-16T06:12:03.060Z,100.00
2022-11-16T06:13:04.693Z,100.00
2022-11-16T06:14:06.987Z,100.00
2022-11-16T06:15:09.926Z,100.00
2022-11-16T06:16:11.539Z,100.00
2022-11-16T06:17:16.138Z,100.00
2022-11-16T06:18:18.564Z,100.00
2022-11-16T06:19:20.084Z,100.00
2022-11-16T06:20:21.857Z,100.00
2022-11-16T06:21:23.232Z,100.00
2022-11-16T06:22:24.682Z,100.00
2022-11-16T06:23:26.648Z,100.00
2022-11-16T06:24:28.778Z,100.00
2022-11-16T06:25:30.132Z,100.00
2022-11-16T06:26:31.848Z,100.00
2022-11-16T06:27:33.242Z,100.00
2022-11-16T06:28:35.272Z,100.00
2022-11-16T06:29:36.784Z,100.00
2022-11-16T06:30:39.032Z,100.00
2022-11-16T06:31:41.463Z,100.00
2022-11-16T06:32:42.919Z,100.00
2022-11-16T06:33:44.517Z,100.00
2022-11-16T06:34:53.900Z,100.00
2022-11-16T06:35:55.580Z,100.00
2022-11-16T06:36:58.886Z,100.00
2022-11-16T06:38:00.492Z,100.00
2022-11-16T06:39:01.904Z,100.00
2022-11-16T06:40:06.363Z,100.00
2022-11-16T06:41:11.068Z,100.00
2022-11-16T06:42:17.802Z,100.00
2022-11-16T06:43:19.893Z,100.00
2022-11-16T06:44:21.369Z,100.00
2022-11-16T06:45:30.304Z,100.00
2022-11-16T06:46:34.428Z,100.00
2022-11-16T06:47:35.867Z,100.00
2022-11-16T06:48:37.488Z,100.00
2022-11-16T06:49:44.482Z,100.00
2022-11-16T06:50:53.056Z,100.00
2022-11-16T06:51:55.953Z,100.00
2022-11-16T06:52:57.355Z,100.00
2022-11-16T06:53:58.748Z,100.00
2022-11-16T06:55:01.953Z,100.00
2022-11-16T06:56:07.197Z,100.00
2022-11-16T06:57:13.815Z,100.00
2022-11-16T06:58:15.231Z,100.00
2022-11-16T06:59:17.756Z,100.00
2022-11-16T07:00:20.357Z,100.00
2022-11-16T07:01:24.102Z,100.00
2022-11-16T07:02:29.813Z,100.00
2022-11-16T07:03:33.382Z,100.00
2022-11-16T07:04:37.401Z,100.00
2022-11-16T07:05:40.132Z,100.00
2022-11-16T07:06:45.087Z,100.00
2022-11-16T07:07:52.864Z,100.00
2022-11-16T07:08:54.274Z,100.00
2022-11-16T07:09:59.690Z,100.00
2022-11-16T07:11:04.270Z,100.00
2022-11-16T07:12:08.706Z,100.00
2022-11-16T07:13:13.378Z,100.00
2022-11-16T07:14:14.774Z,100.00
2022-11-16T07:15:17.566Z,100.00
2022-11-16T07:16:21.356Z,100.00
2022-11-16T07:17:33.437Z,100.00
2022-11-16T07:18:36.035Z,100.00
2022-11-16T07:19:37.908Z,100.00
2022-11-16T07:20:40.328Z,100.00
2022-11-16T07:21:43.189Z,100.00
2022-11-16T07:22:49.228Z,100.00
2022-11-16T07:23:53.052Z,100.00
2022-11-16T07:24:55.747Z,100.00
2022-11-16T07:26:02.064Z,100.00
2022-11-16T07:27:10.993Z,100.00
2022-11-16T07:28:15.754Z,100.00
2022-11-16T07:29:17.173Z,100.00
2022-11-16T07:30:37.413Z,100.00
2022-11-16T07:31:42.924Z,100.00
2022-11-16T07:33:02.848Z,100.00
2022-11-16T07:34:24.168Z,100.00
2022-11-16T07:35:38.453Z,100.00
2022-11-16T07:36:39.808Z,100.00
2022-11-16T07:37:45.384Z,100.00
2022-11-16T07:38:48.790Z,100.00
2022-11-16T07:39:50.392Z,100.00
2022-11-16T07:40:51.895Z,100.00
2022-11-16T07:41:55.610Z,100.00
2022-11-16T07:43:02.091Z,100.00
2022-11-16T07:44:26.372Z,100.00
2022-11-16T07:45:40.989Z,100.00
2022-11-16T07:46:47.109Z,100.00
2022-11-16T07:47:49.731Z,100.00
2022-11-16T07:48:57.507Z,100.00
2022-11-16T07:50:23.431Z,100.00
2022-11-16T07:51:25.945Z,100.00
2022-11-16T07:52:44.075Z,100.00
2022-11-16T07:53:53.846Z,100.00
2022-11-16T07:54:55.293Z,100.00
2022-11-16T07:55:59.727Z,100.00
2022-11-16T07:57:03.081Z,100.00
2022-11-16T07:58:04.756Z,100.00
2022-11-16T07:59:06.183Z,100.00
2022-11-16T08:00:11.317Z,100.00
2022-11-16T08:01:19.592Z,100.00
2022-11-16T08:02:24.806Z,100.00
2022-11-16T08:03:26.937Z,100.00
2022-11-16T08:04:29.218Z,100.00
2022-11-16T08:05:30.650Z,100.00
2022-11-16T08:06:32.109Z,100.00
2022-11-16T08:07:34.084Z,100.00
2022-11-16T08:08:35.779Z,100.00
2022-11-16T08:09:37.368Z,100.00
2022-11-16T08:10:39.050Z,100.00
2022-11-16T08:11:40.482Z,100.00
2022-11-16T08:12:41.998Z,100.00
2022-11-16T08:13:43.620Z,100.00
2022-11-16T08:14:45.281Z,100.00
2022-11-16T08:15:47.723Z,100.00
2022-11-16T08:16:49.115Z,100.00
2022-11-16T08:17:51.887Z,100.00
2022-11-16T08:18:53.275Z,100.00
2022-11-16T08:19:54.644Z,100.00
2022-11-16T08:20:58.344Z,100.00
2022-11-16T08:21:59.873Z,100.00
2022-11-16T08:23:03.889Z,100.00
2022-11-16T08:24:08.660Z,100.00
2022-11-16T08:25:13.649Z,100.00
2022-11-16T08:26:18.066Z,100.00
2022-11-16T08:27:24.104Z,100.00
2022-11-16T08:28:28.694Z,100.00
2022-11-16T08:29:30.066Z,100.00
2022-11-16T08:30:32.454Z,100.00
2022-11-16T08:31:34.373Z,100.00
2022-11-16T08:32:42.797Z,100.00
2022-11-16T08:33:45.633Z,100.00
2022-11-16T08:34:47.576Z,100.00
2022-11-16T08:35:50.908Z,100.00
2022-11-16T08:36:53.667Z,100.00
2022-11-16T08:38:00.896Z,100.00
2022-11-16T08:39:03.184Z,100.00
2022-11-16T08:40:06.474Z,100.00
2022-11-16T08:41:12.347Z,100.00
2022-11-16T08:42:13.778Z,100.00
2022-11-16T08:43:19.307Z,100.00
2022-11-16T08:44:21.562Z,100.00
2022-11-16T08:45:27.010Z,100.00
2022-11-16T08:46:29.967Z,100.00
2022-11-16T08:47:41.189Z,100.00
2022-11-16T08:48:42.977Z,100.00
2022-11-16T08:49:49.378Z,100.00
2022-11-16T08:51:15.818Z,100.00
2022-11-16T08:52:14.531Z,100.00
2022-11-16T08:53:17.068Z,100.00
2022-11-16T08:54:18.924Z,100.00
2022-11-16T08:55:20.340Z,100.00
2022-11-16T08:56:22.220Z,100.00
2022-11-16T08:57:23.571Z,100.00
2022-11-16T08:58:30.494Z,100.00
2022-11-16T08:59:31.994Z,100.00
2022-11-16T09:00:40.217Z,100.00
2022-11-16T09:01:41.636Z,100.00
2022-11-16T09:02:43.037Z,100.00
2022-11-16T09:03:44.684Z,100.00
2022-11-16T09:04:46.653Z,100.00
2022-11-16T09:05:47.997Z,100.00
2022-11-16T09:06:49.365Z,100.00
2022-11-16T09:07:50.739Z,100.00
2022-11-16T09:08:52.440Z,100.00
2022-11-16T09:09:53.753Z,100.00
2022-11-16T09:10:55.101Z,100.00
2022-11-16T09:11:56.488Z,100.00
2022-11-16T09:12:57.822Z,100.00
2022-11-16T09:13:59.280Z,100.00
2022-11-16T09:15:00.654Z,100.00
2022-11-16T09:16:02.105Z,100.00
2022-11-16T09:17:03.518Z,100.00
2022-11-16T09:18:04.844Z,100.00
2022-11-16T09:19:06.187Z,100.00
2022-11-16T09:20:08.197Z,100.00
2022-11-16T09:21:09.526Z,100.00
2022-11-16T09:22:10.922Z,100.00
2022-11-16T09:23:12.248Z,100.00
2022-11-16T09:24:13.633Z,100.00
2022-11-16T09:25:15.016Z,100.00
2022-11-16T09:26:17.108Z,100.00
2022-11-16T09:27:18.418Z,100.00
2022-11-16T09:28:20.506Z,100.00
2022-11-16T09:29:22.016Z,100.00
2022-11-16T09:30:23.347Z,100.00
2022-11-16T09:31:25.300Z,100.00
2022-11-16T09:32:26.635Z,100.00
2022-11-16T09:33:28.785Z,100.00
2022-11-16T09:34:30.156Z,100.00
2022-11-16T09:35:33.288Z,100.00
2022-11-16T09:36:34.733Z,100.00
2022-11-16T09:37:36.080Z,100.00
2022-11-16T09:39:13.951Z,100.00
2022-11-16T09:40:03.203Z,100.00
2022-11-16T09:41:13.925Z,100.00
2022-11-16T09:42:34.102Z,100.00
2022-11-16T09:43:54.079Z,100.00
2022-11-16T09:44:55.426Z,100.00
2022-11-16T09:45:56.761Z,100.00
2022-11-16T09:46:59.498Z,100.00
2022-11-16T09:48:03.452Z,100.00
2022-11-16T09:49:17.425Z,100.00
2022-11-16T09:50:27.062Z,100.00
2022-11-16T09:51:31.529Z,100.00
2022-11-16T09:52:32.876Z,100.00
2022-11-16T09:53:40.003Z,100.00
2022-11-16T09:54:43.127Z,100.00
2022-11-16T09:55:50.775Z,100.00
2022-11-16T09:56:54.188Z,100.00
2022-11-16T09:57:58.152Z,100.00
2022-11-16T09:59:05.511Z,100.00
2022-11-16T10:00:21.546Z,100.00
2022-11-16T10:01:26.171Z,100.00
2022-11-16T10:02:44.129Z,100.00
2022-11-16T10:03:47.738Z,100.00
2022-11-16T10:04:58.269Z,100.00
2022-11-16T10:06:01.936Z,100.00
2022-11-16T10:07:06.115Z,100.00
2022-11-16T10:08:14.400Z,100.00
2022-11-16T10:09:16.144Z,100.00
2022-11-16T10:10:43.904Z,100.00
2022-11-16T10:12:03.947Z,100.00
2022-11-16T10:13:23.764Z,100.00
2022-11-16T10:14:36.321Z,100.00
2022-11-16T10:15:57.915Z,99.64
2022-11-16T10:17:14.346Z,99.29
2022-11-16T10:18:32.136Z,99.79
2022-11-16T10:19:33.484Z,97.25
2022-11-16T10:20:37.898Z,94.98
2022-11-16T10:21:48.283Z,95.54
2022-11-16T10:23:05.212Z,95.01
2022-11-16T10:24:25.209Z,94.34
2022-11-16T10:25:32.976Z,95.37
2022-11-16T10:26:37.420Z,96.48
2022-11-16T10:27:45.217Z,97.22
2022-11-16T10:28:46.561Z,96.62
2022-11-16T10:29:50.645Z,95.65
2022-11-16T10:30:59.180Z,95.60
2022-11-16T10:32:07.875Z,94.37
2022-11-16T10:33:15.629Z,94.64
2022-11-16T10:34:24.977Z,95.40
2022-11-16T10:35:32.861Z,96.29
2022-11-16T10:36:35.845Z,96.97
2022-11-16T10:37:39.811Z,97.97
2022-11-16T10:38:41.882Z,98.46
2022-11-16T10:39:43.545Z,98.47
2022-11-16T10:40:49.409Z,98.79
2022-11-16T10:41:51.187Z,99.55
2022-11-16T10:42:57.747Z,99.53
2022-11-16T10:43:59.430Z,98.73
2022-11-16T10:45:09.765Z,99.07
2022-11-16T10:46:17.126Z,99.42
2022-11-16T10:47:21.912Z,99.20
2022-11-16T10:48:34.527Z,99.98
2022-11-16T10:49:46.560Z,97.77
2022-11-16T10:50:48.829Z,97.84
2022-11-16T10:51:50.277Z,98.48
2022-11-16T10:52:51.605Z,95.80
2022-11-16T10:53:52.926Z,95.58
2022-11-16T10:54:54.495Z,96.51
2022-11-16T10:56:16.084Z,97.44
2022-11-16T10:57:17.866Z,96.09
2022-11-16T10:58:19.278Z,94.01
2022-11-16T10:59:20.851Z,94.45
2022-11-16T11:00:41.779Z,94.17
2022-11-16T11:01:47.126Z,94.82
2022-11-16T11:02:48.521Z,94.86
2022-11-16T11:03:49.843Z,95.68
2022-11-16T11:05:20.643Z,94.90
2022-11-16T11:06:24.725Z,93.12
2022-11-16T11:07:38.807Z,93.69
2022-11-16T11:08:40.265Z,92.83
2022-11-16T11:09:41.641Z,92.52
2022-11-16T11:10:56.739Z,93.91
2022-11-16T11:12:18.337Z,94.25
2022-11-16T11:13:22.425Z,95.27
2022-11-16T11:14:23.796Z,95.81
2022-11-16T11:15:26.617Z,95.55
2022-11-16T11:16:28.236Z,93.52
2022-11-16T11:17:30.720Z,89.97
2022-11-16T11:18:32.057Z,88.91
2022-11-16T11:19:33.456Z,89.24
2022-11-16T11:20:34.992Z,91.41
2022-11-16T11:21:36.329Z,92.68
2022-11-16T11:22:49.936Z,91.41
2022-11-16T11:23:52.865Z,92.40
2022-11-16T11:24:54.551Z,92.69
2022-11-16T11:26:00.064Z,91.21
2022-11-16T11:27:01.467Z,88.92
2022-11-16T11:28:25.773Z,88.50
2022-11-16T11:29:30.157Z,89.63
2022-11-16T11:30:31.504Z,85.06
2022-11-16T11:31:39.993Z,79.73
2022-11-16T11:32:41.409Z,79.10
2022-11-16T11:33:48.173Z,80.34
2022-11-16T11:34:52.104Z,83.43
2022-11-16T11:35:57.367Z,82.45
2022-11-16T11:37:01.166Z,79.73
2022-11-16T11:38:07.736Z,79.41
2022-11-16T11:39:12.460Z,78.94
2022-11-16T11:40:21.667Z,78.81
2022-11-16T11:41:23.687Z,77.83
2022-11-16T11:42:25.206Z,78.31
2022-11-16T11:43:27.082Z,79.57
2022-11-16T11:44:37.601Z,80.53
2022-11-16T11:45:45.082Z,78.32
2022-11-16T11:47:35.026Z,76.10
2022-11-16T11:48:22.584Z,77.90
2022-11-16T11:49:33.218Z,78.44
2022-11-16T11:50:35.133Z,77.30
2022-11-16T11:51:41.485Z,77.20
2022-11-16T11:52:50.393Z,75.65
2022-11-16T11:53:54.179Z,75.62
2022-11-16T11:54:55.848Z,75.69
2022-11-16T11:55:59.057Z,78.43
2022-11-16T11:57:03.078Z,80.22
2022-11-16T11:58:05.796Z,81.45
2022-11-16T11:59:07.168Z,83.36
2022-11-16T12:00:08.833Z,83.77
2022-11-16T12:01:12.888Z,83.10
2022-11-16T12:02:41.350Z,85.19
2022-11-16T12:03:42.779Z,85.43
2022-11-16T12:05:03.086Z,83.13
2022-11-16T12:06:04.458Z,83.15
2022-11-16T12:07:24.712Z,84.17
2022-11-16T12:08:38.282Z,84.13
2022-11-16T12:09:39.601Z,83.70
2022-11-16T12:10:40.920Z,84.99
2022-11-16T12:11:54.288Z,82.54
2022-11-16T12:13:07.901Z,82.65
2022-11-16T12:14:09.269Z,84.87
2022-11-16T12:15:34.048Z,85.58
2022-11-16T12:16:41.672Z,84.85
2022-11-16T12:17:46.055Z,84.11
2022-11-16T12:18:53.346Z,83.79
2022-11-16T12:19:57.811Z,82.23
2022-11-16T12:21:11.349Z,82.14
2022-11-16T12:22:34.805Z,84.45
2022-11-16T12:23:38.958Z,85.86
2022-11-16T12:24:49.685Z,87.11
2022-11-16T12:25:58.693Z,85.67
2022-11-16T12:27:03.048Z,85.93
2022-11-16T12:28:27.434Z,86.70
2022-11-16T12:29:34.890Z,86.34
2022-11-16T12:30:53.168Z,86.83
2022-11-16T12:31:54.561Z,86.42
2022-11-16T12:33:22.925Z,84.89
2022-11-16T12:34:31.155Z,84.09
2022-11-16T12:35:38.499Z,84.43
2022-11-16T12:37:03.509Z,85.10
2022-11-16T12:38:04.951Z,85.32
2022-11-16T12:39:14.243Z,83.64
2022-11-16T12:40:29.842Z,82.40
2022-11-16T12:41:47.876Z,80.60
2022-11-16T12:43:27.670Z,80.80
2022-11-16T12:44:53.985Z,82.37
2022-11-16T12:46:08.302Z,80.83
2022-11-16T12:47:18.622Z,81.52
2022-11-16T12:48:41.421Z,80.14
2022-11-16T12:49:54.393Z,79.25
2022-11-16T12:50:58.348Z,79.80
2022-11-16T12:52:12.330Z,82.02
2022-11-16T12:53:22.772Z,81.98
2022-11-16T12:55:03.928Z,80.75
2022-11-16T12:56:14.507Z,80.96
2022-11-16T12:57:25.046Z,80.92
2022-11-16T12:58:26.376Z,81.52
2022-11-16T12:59:45.858Z,80.64
2022-11-16T13:00:54.908Z,80.98
2022-11-16T13:02:00.282Z,81.28
2022-11-16T13:03:01.983Z,81.54
2022-11-16T13:04:15.666Z,81.04
2022-11-16T13:05:20.111Z,78.77
2022-11-16T13:06:41.671Z,78.93
2022-11-16T13:07:45.717Z,77.82
2022-11-16T13:08:56.107Z,78.94
2022-11-16T13:10:00.934Z,78.38
2022-11-16T13:11:15.545Z,73.55
2022-11-16T13:12:19.391Z,72.58
2022-11-16T13:13:44.833Z,73.53
2022-11-16T13:14:48.727Z,74.82
2022-11-16T13:15:50.681Z,73.96
2022-11-16T13:16:53.134Z,72.89
2022-11-16T13:17:57.719Z,72.12
2022-11-16T13:19:00.644Z,72.33
2022-11-16T13:20:14.905Z,72.20
2022-11-16T13:21:40.412Z,71.77
2022-11-16T13:22:45.983Z,72.21
2022-11-16T13:24:06.284Z,72.68
2022-11-16T13:25:28.103Z,73.58
2022-11-16T13:26:42.221Z,72.51
2022-11-16T13:27:48.443Z,73.24
2022-11-16T13:28:55.949Z,71.35
2022-11-16T13:30:06.424Z,71.50
2022-11-16T13:31:21.369Z,69.30
2022-11-16T13:32:38.832Z,69.56
2022-11-16T13:33:50.693Z,70.62
2022-11-16T13:34:53.067Z,71.33
2022-11-16T13:35:57.444Z,72.15
2022-11-16T13:36:58.824Z,73.59
2022-11-16T13:38:00.359Z,72.45
2022-11-16T13:39:01.712Z,72.05
2022-11-16T13:40:03.167Z,70.90
2022-11-16T13:41:40.032Z,70.44
2022-11-16T13:42:57.318Z,70.39